createdAt,value
2018-07-23T00:01:21.407Z,52.09
2018-07-23T00:03:49.246Z,52.64
2018-07-23T00:06:17.662Z,52.41
2018-07-23T00:08:45.270Z,52.64
2018-07-23T00:11:13.514Z,53.15
2018-07-23T00:13:41.164Z,53.06
2018-07-23T00:16:08.807Z,53.15
2018-07-23T00:18:36.785Z,52.39
2018-07-23T00:21:04.606Z,52.68
2018-07-23T00:23:32.582Z,52.55
2018-07-23T00:26:00.714Z,52.30
2018-07-23T00:28:28.600Z,52.50
2018-07-23T00:30:56.617Z,52.86
2018-07-23T00:33:24.263Z,52.85
2018-07-23T00:35:51.897Z,52.58
2018-07-23T00:38:19.642Z,53.24
2018-07-23T00:40:47.626Z,52.40
2018-07-23T00:43:15.228Z,52.51
2018-07-23T00:45:43.243Z,52.34
2018-07-23T00:48:10.846Z,53.08
2018-07-23T00:50:38.848Z,53.25
2018-07-23T00:53:06.733Z,53.00
2018-07-23T00:55:34.845Z,52.58
2018-07-23T00:58:02.769Z,53.17
2018-07-23T01:00:30.505Z,53.11
2018-07-23T01:03:02.661Z,52.79
2018-07-23T01:05:30.581Z,52.25
2018-07-23T01:07:58.216Z,53.21
2018-07-23T01:10:26.262Z,52.47
2018-07-23T01:12:53.946Z,53.13
2018-07-23T01:15:21.605Z,52.88
2018-07-23T01:17:49.292Z,53.27
2018-07-23T01:20:17.162Z,52.33
2018-07-23T01:22:44.864Z,52.35
2018-07-23T01:25:13.141Z,52.30
2018-07-23T01:27:41.069Z,53.48
2018-07-23T01:30:08.738Z,53.34
2018-07-23T01:32:36.340Z,53.33
2018-07-23T01:35:04.008Z,53.17
2018-07-23T01:37:31.960Z,53.54
2018-07-23T01:39:59.956Z,53.29
2018-07-23T01:42:28.096Z,52.60
2018-07-23T01:44:56.234Z,52.55
2018-07-23T01:47:23.854Z,53.29
2018-07-23T01:49:51.506Z,53.14
2018-07-23T01:52:19.384Z,53.32
2018-07-23T01:54:47.619Z,52.52
2018-07-23T01:57:15.251Z,52.75
2018-07-23T01:59:43.181Z,53.47
2018-07-23T02:02:10.875Z,53.26
2018-07-23T02:04:38.625Z,53.24
2018-07-23T02:07:06.877Z,53.44
2018-07-23T02:09:34.589Z,53.51
2018-07-23T02:12:02.763Z,52.68
2018-07-23T02:14:30.388Z,52.40
2018-07-23T02:16:58.794Z,53.45
2018-07-23T02:19:26.459Z,53.53
2018-07-23T02:21:54.100Z,53.30
2018-07-23T02:24:22.188Z,53.01
2018-07-23T02:26:50.268Z,53.37
2018-07-23T02:29:17.895Z,52.88
2018-07-23T02:31:45.798Z,52.98
2018-07-23T02:34:13.461Z,53.27
2018-07-23T02:36:41.101Z,53.31
2018-07-23T02:39:10.762Z,53.49
2018-07-23T02:41:38.426Z,52.64
2018-07-23T02:44:06.107Z,53.42
2018-07-23T02:46:33.767Z,53.45
2018-07-23T02:49:01.406Z,53.45
2018-07-23T02:51:29.582Z,52.78
2018-07-23T02:53:57.590Z,52.89
2018-07-23T02:56:25.290Z,52.51
2018-07-23T02:58:52.909Z,53.42
2018-07-23T03:01:20.577Z,53.34
2018-07-23T03:03:48.196Z,53.42
2018-07-23T03:06:16.218Z,53.13
2018-07-23T03:08:43.864Z,52.33
2018-07-23T03:11:11.529Z,52.40
2018-07-23T03:13:39.148Z,52.51
2018-07-23T03:16:07.004Z,52.73
2018-07-23T03:18:35.353Z,53.08
2018-07-23T03:21:02.995Z,52.83
2018-07-23T03:23:30.660Z,52.51
2018-07-23T03:25:58.350Z,52.56
2018-07-23T03:28:26.384Z,52.66
2018-07-23T03:30:54.304Z,53.33
2018-07-23T03:33:21.989Z,53.60
2018-07-23T03:35:50.381Z,52.65
2018-07-23T03:38:18.012Z,52.60
2018-07-23T03:40:46.480Z,52.73
2018-07-23T03:43:14.123Z,53.46
2018-07-23T03:45:41.800Z,53.38
2018-07-23T03:48:09.425Z,52.65
2018-07-23T03:50:37.028Z,53.38
2018-07-23T03:53:04.705Z,52.52
2018-07-23T03:55:32.812Z,52.45
2018-07-23T03:58:00.483Z,52.87
2018-07-23T04:00:28.094Z,53.25
2018-07-23T04:02:56.164Z,52.50
2018-07-23T04:05:24.009Z,53.18
2018-07-23T04:07:52.157Z,52.60
2018-07-23T04:10:19.827Z,53.13
2018-07-23T04:12:47.474Z,52.06
2018-07-23T04:15:15.381Z,52.02
2018-07-23T04:17:48.180Z,52.10
2018-07-23T04:20:15.860Z,51.94
2018-07-23T04:22:43.958Z,52.29
2018-07-23T04:25:11.928Z,52.83
2018-07-23T04:27:39.634Z,52.04
2018-07-23T04:30:07.309Z,52.54
2018-07-23T04:32:35.472Z,52.08
2018-07-23T04:35:03.090Z,51.82
2018-07-23T04:37:30.740Z,51.80
2018-07-23T04:39:58.434Z,51.61
2018-07-23T04:42:26.093Z,51.77
2018-07-23T04:44:54.044Z,52.13
2018-07-23T04:47:22.036Z,52.06
2018-07-23T04:49:49.673Z,51.91
2018-07-23T04:52:17.386Z,51.88
2018-07-23T04:54:45.313Z,52.09
2018-07-23T04:57:13.594Z,52.10
2018-07-23T04:59:41.478Z,51.77
2018-07-23T05:02:09.781Z,52.08
2018-07-23T05:04:37.453Z,52.51
2018-07-23T05:07:05.349Z,51.89
2018-07-23T05:09:33.017Z,51.74
2018-07-23T05:12:00.657Z,51.71
2018-07-23T05:14:29.076Z,52.20
2018-07-23T05:16:57.065Z,52.06
2018-07-23T05:19:24.700Z,51.60
2018-07-23T05:21:52.359Z,52.07
2018-07-23T05:24:20.347Z,51.90
2018-07-23T05:26:48.342Z,51.61
2018-07-23T05:29:16.464Z,51.49
2018-07-23T05:31:44.513Z,51.85
2018-07-23T05:34:12.610Z,52.17
2018-07-23T05:36:40.567Z,52.35
2018-07-23T05:39:10.899Z,51.95
2018-07-23T05:41:39.168Z,51.84
2018-07-23T05:44:06.824Z,51.78
2018-07-23T05:46:34.480Z,51.63
2018-07-23T05:49:02.143Z,51.83
2018-07-23T05:51:30.260Z,51.53
2018-07-23T05:53:57.921Z,51.41
2018-07-23T05:56:25.593Z,51.89
2018-07-23T05:58:53.288Z,51.08
2018-07-23T06:01:21.416Z,51.46
2018-07-23T06:03:49.079Z,51.33
2018-07-23T06:06:17.071Z,51.37
2018-07-23T06:08:44.692Z,51.50
2018-07-23T06:11:12.321Z,51.40
2018-07-23T06:13:40.309Z,51.51
2018-07-23T06:16:08.116Z,51.26
2018-07-23T06:18:35.787Z,51.25
2018-07-23T06:21:03.713Z,51.39
2018-07-23T06:23:31.426Z,51.37
2018-07-23T06:25:59.332Z,50.71
2018-07-23T06:28:27.324Z,51.53
2018-07-23T06:30:55.205Z,51.59
2018-07-23T06:33:22.889Z,51.68
2018-07-23T06:35:50.760Z,50.70
2018-07-23T06:38:18.390Z,51.68
2018-07-23T06:40:46.469Z,50.90
2018-07-23T06:43:14.107Z,50.68
2018-07-23T06:45:41.828Z,51.50
2018-07-23T06:48:09.870Z,50.32
2018-07-23T06:50:38.018Z,50.86
2018-07-23T06:53:06.151Z,50.75
2018-07-23T06:55:34.101Z,51.04
2018-07-23T06:58:02.083Z,50.35
2018-07-23T07:00:29.767Z,50.84
2018-07-23T07:02:57.409Z,50.06
2018-07-23T07:05:25.337Z,49.78
2018-07-23T07:07:53.038Z,49.76
2018-07-23T07:10:21.024Z,50.26
2018-07-23T07:12:48.678Z,50.67
2018-07-23T07:15:16.657Z,50.09
2018-07-23T07:17:44.321Z,50.28
2018-07-23T07:20:12.060Z,50.08
2018-07-23T07:22:39.663Z,50.17
2018-07-23T07:25:07.312Z,49.35
2018-07-23T07:27:35.240Z,49.93
2018-07-23T07:30:03.017Z,49.22
2018-07-23T07:32:30.690Z,50.27
2018-07-23T07:34:58.354Z,49.77
2018-07-23T07:37:25.989Z,49.57
2018-07-23T07:39:54.236Z,49.74
2018-07-23T07:42:21.939Z,49.93
2018-07-23T07:44:49.580Z,49.75
2018-07-23T07:47:17.873Z,49.36
2018-07-23T07:49:45.551Z,49.60
2018-07-23T07:52:13.481Z,48.80
2018-07-23T07:54:41.404Z,49.43
2018-07-23T07:57:09.231Z,49.83
2018-07-23T07:59:37.118Z,49.02
2018-07-23T08:02:04.801Z,50.09
2018-07-23T08:04:32.521Z,49.02
2018-07-23T08:07:00.436Z,49.26
2018-07-23T08:09:28.157Z,49.41
2018-07-23T08:11:56.298Z,49.00
2018-07-23T08:14:23.963Z,49.15
2018-07-23T08:16:51.616Z,48.89
2018-07-23T08:19:19.550Z,48.98
2018-07-23T08:21:47.521Z,48.95
2018-07-23T08:24:15.461Z,49.47
2018-07-23T08:26:43.452Z,49.48
2018-07-23T08:29:11.575Z,49.38
2018-07-23T08:31:39.305Z,49.51
2018-07-23T08:34:06.897Z,48.78
2018-07-23T08:36:35.278Z,48.25
2018-07-23T08:39:03.147Z,49.17
2018-07-23T08:41:31.080Z,48.60
2018-07-23T08:43:58.766Z,48.66
2018-07-23T08:46:26.395Z,48.74
2018-07-23T08:48:54.042Z,48.91
2018-07-23T08:51:21.826Z,48.49
2018-07-23T08:53:49.474Z,49.07
2018-07-23T08:56:17.998Z,48.46
2018-07-23T08:58:46.065Z,48.50
2018-07-23T09:01:14.223Z,47.87
2018-07-23T09:03:42.276Z,48.29
2018-07-23T09:06:10.169Z,48.66
2018-07-23T09:08:38.162Z,47.74
2018-07-23T09:11:05.977Z,48.31
2018-07-23T09:13:34.058Z,47.75
2018-07-23T09:16:02.099Z,48.11
2018-07-23T09:18:30.119Z,47.90
2018-07-23T09:20:57.767Z,48.39
2018-07-23T09:23:25.402Z,47.54
2018-07-23T09:25:53.121Z,47.78
2018-07-23T09:28:21.347Z,48.54
2018-07-23T09:30:51.437Z,47.66
2018-07-23T09:33:21.042Z,48.22
2018-07-23T09:35:49.021Z,48.09
2018-07-23T09:38:16.674Z,47.50
2018-07-23T09:40:44.623Z,47.67
2018-07-23T09:43:12.806Z,48.59
2018-07-23T09:45:40.478Z,47.59
2018-07-23T09:48:08.684Z,48.26
2018-07-23T09:50:36.396Z,47.67
2018-07-23T09:53:04.257Z,47.46
2018-07-23T09:55:32.050Z,47.65
2018-07-23T09:57:59.679Z,47.63
2018-07-23T10:00:33.265Z,47.18
2018-07-23T10:03:00.922Z,47.24
2018-07-23T10:05:28.584Z,48.01
2018-07-23T10:07:56.641Z,47.32
2018-07-23T10:10:24.660Z,48.13
2018-07-23T10:12:52.613Z,47.82
2018-07-23T10:15:20.649Z,47.45
2018-07-23T10:17:48.610Z,48.16
2018-07-23T10:20:16.826Z,48.20
2018-07-23T10:22:44.502Z,48.15
2018-07-23T10:25:12.421Z,47.76
2018-07-23T10:27:40.385Z,48.25
2018-07-23T10:30:08.016Z,48.26
2018-07-23T10:32:35.710Z,48.33
2018-07-23T10:35:03.377Z,47.73
2018-07-23T10:37:31.280Z,47.81
2018-07-23T10:39:58.994Z,47.53
2018-07-23T10:42:26.625Z,47.49
2018-07-23T10:44:54.676Z,47.60
2018-07-23T10:47:22.700Z,48.12
2018-07-23T10:49:50.300Z,48.21
2018-07-23T10:52:18.584Z,47.88
2018-07-23T10:54:46.467Z,48.17
2018-07-23T10:57:14.492Z,47.54
2018-07-23T10:59:42.525Z,47.99
2018-07-23T11:02:10.707Z,47.49
2018-07-23T11:04:38.349Z,47.84
2018-07-23T11:07:06.043Z,48.22
2018-07-23T11:09:33.656Z,48.27
2018-07-23T11:12:01.298Z,47.63
2018-07-23T11:14:29.225Z,47.15
2018-07-23T11:16:57.205Z,48.01
2018-07-23T11:19:25.151Z,47.93
2018-07-23T11:21:52.998Z,47.38
2018-07-23T11:24:20.645Z,47.98
2018-07-23T11:26:48.571Z,47.01
2018-07-23T11:29:17.048Z,47.15
2018-07-23T11:31:45.163Z,47.67
2018-07-23T11:34:13.291Z,47.83
2018-07-23T11:36:41.592Z,47.26
2018-07-23T11:39:11.225Z,47.23
2018-07-23T11:41:39.838Z,47.69
2018-07-23T11:44:07.459Z,46.92
2018-07-23T11:46:35.660Z,47.95
2018-07-23T11:49:04.069Z,47.53
2018-07-23T11:51:31.677Z,47.43
2018-07-23T11:53:59.514Z,47.41
2018-07-23T11:56:27.284Z,47.17
2018-07-23T11:58:55.226Z,47.45
2018-07-23T12:01:23.519Z,47.10
2018-07-23T12:03:51.440Z,46.94
2018-07-23T12:06:19.353Z,47.64
2018-07-23T12:08:47.007Z,46.71
2018-07-23T12:11:14.685Z,46.93
2018-07-23T12:13:42.315Z,47.53
2018-07-23T12:16:10.276Z,46.78
2018-07-23T12:18:37.982Z,46.60
2018-07-23T12:21:05.594Z,47.15
2018-07-23T12:23:33.226Z,46.83
2018-07-23T12:26:00.900Z,47.46
2018-07-23T12:28:28.581Z,46.84
2018-07-23T12:30:56.236Z,47.16
2018-07-23T12:33:24.254Z,47.81
2018-07-23T12:35:52.317Z,47.51
2018-07-23T12:38:20.204Z,47.62
2018-07-23T12:40:47.969Z,46.76
2018-07-23T12:43:16.221Z,47.12
2018-07-23T12:45:43.911Z,47.47
2018-07-23T12:48:11.851Z,46.58
2018-07-23T12:50:39.481Z,47.58
2018-07-23T12:53:07.523Z,47.61
2018-07-23T12:55:35.228Z,47.11
2018-07-23T12:58:02.941Z,47.16
2018-07-23T13:00:30.576Z,47.28
2018-07-23T13:02:58.245Z,47.52
2018-07-23T13:05:30.938Z,46.46
2018-07-23T13:07:59.569Z,46.51
2018-07-23T13:10:27.467Z,47.00
2018-07-23T13:12:55.124Z,47.38
2018-07-23T13:15:23.265Z,47.33
2018-07-23T13:17:51.370Z,46.41
2018-07-23T13:20:19.020Z,46.25
2018-07-23T13:22:47.449Z,47.11
2018-07-23T13:25:15.381Z,46.27
2018-07-23T13:27:43.539Z,46.72
2018-07-23T13:30:11.257Z,46.79
2018-07-23T13:32:39.301Z,47.17
2018-07-23T13:35:07.031Z,47.08
2018-07-23T13:37:34.786Z,47.07
2018-07-23T13:40:02.477Z,46.40
2018-07-23T13:42:30.348Z,46.28
2018-07-23T13:44:58.001Z,46.86
2018-07-23T13:47:25.667Z,46.68
2018-07-23T13:49:53.334Z,46.15
2018-07-23T13:52:21.220Z,45.99
2018-07-23T13:54:48.924Z,46.48
2018-07-23T13:57:16.931Z,46.79
2018-07-23T13:59:44.908Z,46.33
2018-07-23T14:02:13.244Z,45.96
2018-07-23T14:04:40.980Z,46.05
2018-07-23T14:07:08.910Z,46.68
2018-07-23T14:09:36.558Z,46.80
2018-07-23T14:12:04.503Z,46.00
2018-07-23T14:14:32.386Z,46.88
2018-07-23T14:17:00.119Z,46.68
2018-07-23T14:19:27.801Z,46.05
2018-07-23T14:21:55.700Z,45.94
2018-07-23T14:24:23.362Z,46.44
2018-07-23T14:26:51.989Z,45.48
2018-07-23T14:29:20.213Z,44.84
2018-07-23T14:31:48.427Z,45.07
2018-07-23T14:34:16.106Z,44.53
2018-07-23T14:36:43.776Z,43.29
2018-07-23T14:39:13.285Z,39.94
2018-07-23T14:41:41.283Z,36.92
2018-07-23T14:44:09.272Z,35.98
2018-07-23T14:46:37.277Z,34.76
2018-07-23T14:49:05.154Z,34.65
2018-07-23T14:51:32.828Z,33.66
2018-07-23T14:54:00.874Z,33.10
2018-07-23T14:56:28.509Z,32.74
2018-07-23T14:58:56.234Z,32.91
2018-07-23T15:01:23.876Z,32.46
2018-07-23T15:03:51.526Z,32.98
2018-07-23T15:06:19.485Z,34.61
2018-07-23T15:08:47.656Z,36.00
2018-07-23T15:11:15.297Z,37.69
2018-07-23T15:13:43.073Z,39.33
2018-07-23T15:16:11.013Z,41.06
2018-07-23T15:18:38.666Z,41.15
2018-07-23T15:21:06.415Z,41.73
2018-07-23T15:23:34.074Z,42.84
2018-07-23T15:26:01.845Z,42.82
2018-07-23T15:28:29.840Z,42.73
2018-07-23T15:30:57.553Z,42.44
2018-07-23T15:33:25.559Z,43.21
2018-07-23T15:35:53.595Z,43.71
2018-07-23T15:38:21.909Z,43.81
2018-07-23T15:40:49.597Z,43.17
2018-07-23T15:43:17.404Z,42.38
2018-07-23T15:45:45.471Z,43.03
2018-07-23T15:48:13.000Z,41.91
2018-07-23T15:50:41.223Z,42.65
2018-07-23T15:53:09.210Z,43.80
2018-07-23T15:55:36.904Z,43.91
2018-07-23T15:58:05.032Z,44.19
2018-07-23T16:00:32.661Z,44.54
2018-07-23T16:03:00.351Z,44.59
2018-07-23T16:05:28.130Z,44.29
2018-07-23T16:07:56.107Z,44.21
2018-07-23T16:10:24.033Z,44.52
2018-07-23T16:12:51.677Z,44.68
2018-07-23T16:15:19.404Z,44.63
2018-07-23T16:17:47.518Z,43.81
2018-07-23T16:20:15.166Z,44.19
2018-07-23T16:22:42.892Z,44.43
2018-07-23T16:25:11.249Z,44.61
2018-07-23T16:27:38.893Z,44.67
2018-07-23T16:30:07.594Z,44.78
2018-07-23T16:32:35.263Z,44.73
2018-07-23T16:35:03.144Z,43.95
2018-07-23T16:37:30.822Z,44.88
2018-07-23T16:39:58.776Z,44.64
2018-07-23T16:42:26.428Z,44.54
2018-07-23T16:44:54.397Z,45.28
2018-07-23T16:47:22.071Z,44.42
2018-07-23T16:49:49.734Z,44.70
2018-07-23T16:52:17.580Z,44.36
2018-07-23T16:54:45.385Z,44.29
2018-07-23T16:57:13.052Z,44.78
2018-07-23T16:59:41.279Z,43.52
2018-07-23T17:02:08.962Z,43.25
2018-07-23T17:04:37.133Z,43.60
2018-07-23T17:07:04.850Z,43.16
2018-07-23T17:09:32.524Z,42.37
2018-07-23T17:12:00.147Z,42.13
2018-07-23T17:14:28.071Z,42.52
2018-07-23T17:16:55.830Z,42.58
2018-07-23T17:19:23.492Z,42.50
2018-07-23T17:21:51.170Z,42.36
2018-07-23T17:24:18.846Z,42.22
2018-07-23T17:26:46.534Z,41.29
2018-07-23T17:29:14.178Z,41.27
2018-07-23T17:31:42.381Z,40.86
2018-07-23T17:34:10.015Z,40.79
2018-07-23T17:36:37.663Z,40.61
2018-07-23T17:39:08.703Z,41.14
2018-07-23T17:41:36.370Z,40.96
2018-07-23T17:44:04.041Z,40.79
2018-07-23T17:46:31.753Z,40.98
2018-07-23T17:48:59.764Z,40.80
2018-07-23T17:51:27.729Z,40.84
2018-07-23T17:53:55.424Z,40.43
2018-07-23T17:56:23.327Z,40.51
2018-07-23T17:58:51.043Z,40.22
2018-07-23T18:01:19.245Z,40.92
2018-07-23T18:03:47.173Z,41.03
2018-07-23T18:06:15.165Z,41.26
2018-07-23T18:08:42.861Z,41.24
2018-07-23T18:11:10.553Z,41.40
2018-07-23T18:13:38.454Z,41.31
2018-07-23T18:16:06.350Z,41.77
2018-07-23T18:18:35.449Z,41.13
2018-07-23T18:21:03.316Z,42.04
2018-07-23T18:23:30.970Z,41.41
2018-07-23T18:25:58.664Z,41.98
2018-07-23T18:28:26.576Z,41.48
2018-07-23T18:30:54.830Z,42.08
2018-07-23T18:33:22.476Z,41.46
2018-07-23T18:35:50.181Z,41.55
2018-07-23T18:38:18.218Z,41.94
2018-07-23T18:40:46.183Z,42.21
2018-07-23T18:43:14.399Z,41.78
2018-07-23T18:45:42.518Z,42.35
2018-07-23T18:49:26.865Z,41.89
2018-07-23T18:51:55.034Z,42.89
2018-07-23T18:54:24.477Z,42.48
2018-07-23T18:56:53.866Z,42.96
2018-07-23T18:59:21.617Z,43.26
2018-07-23T19:01:50.792Z,42.72
2018-07-23T19:04:18.452Z,42.88
2018-07-23T19:06:46.585Z,43.69
2018-07-23T19:09:16.758Z,44.26
2018-07-23T19:11:45.492Z,44.33
2018-07-23T19:14:14.488Z,43.99
2018-07-23T19:16:42.375Z,44.35
2018-07-23T19:19:10.138Z,44.94
2018-07-23T19:21:38.151Z,44.54
2018-07-23T19:24:05.847Z,45.31
2018-07-23T19:26:33.498Z,45.52
2018-07-23T19:29:01.153Z,45.95
2018-07-23T19:31:29.301Z,45.64
2018-07-23T19:33:58.519Z,46.20
2018-07-23T19:36:26.588Z,46.24
2018-07-23T19:38:55.474Z,45.63
2018-07-23T19:41:23.158Z,45.66
2018-07-23T19:43:51.340Z,46.47
2018-07-23T19:46:19.083Z,46.87
2018-07-23T19:48:47.148Z,46.72
2018-07-23T19:51:14.836Z,46.41
2018-07-23T19:53:42.494Z,47.19
2018-07-23T19:56:10.794Z,47.44
2018-07-23T19:58:39.189Z,46.59
2018-07-23T20:01:06.902Z,47.64
2018-07-23T20:03:34.935Z,47.56
2018-07-23T20:06:03.285Z,48.14
2018-07-23T20:08:31.315Z,47.56
2018-07-23T20:10:58.963Z,47.32
2018-07-23T20:13:26.860Z,47.78
2018-07-23T20:15:55.295Z,47.66
2018-07-23T20:18:23.328Z,47.83
2018-07-23T20:20:51.381Z,47.79
2018-07-23T20:23:19.025Z,47.81
2018-07-23T20:25:46.717Z,48.48
2018-07-23T20:28:14.424Z,47.86
2018-07-23T20:30:42.827Z,48.36
2018-07-23T20:33:10.798Z,48.94
2018-07-23T20:35:38.424Z,48.46
2018-07-23T20:38:06.215Z,48.31
2018-07-23T20:40:34.007Z,48.37
2018-07-23T20:43:01.776Z,48.12
2018-07-23T20:45:29.742Z,48.37
2018-07-23T20:47:57.877Z,48.84
2018-07-23T20:50:25.578Z,48.67
2018-07-23T20:52:53.811Z,48.55
2018-07-23T20:55:21.535Z,48.61
2018-07-23T20:57:49.499Z,48.50
2018-07-23T21:00:17.282Z,48.10
2018-07-23T21:02:44.893Z,48.69
2018-07-23T21:05:12.797Z,49.81
2018-07-23T21:07:40.726Z,48.84
2018-07-23T21:10:08.384Z,49.54
2018-07-23T21:12:36.645Z,48.60
2018-07-23T21:15:05.326Z,48.54
2018-07-23T21:17:32.972Z,49.05
2018-07-23T21:20:00.674Z,49.42
2018-07-23T21:22:28.332Z,49.10
2018-07-23T21:24:56.374Z,49.23
2018-07-23T21:27:24.054Z,48.49
2018-07-23T21:29:51.961Z,48.72
2018-07-23T21:32:19.971Z,49.17
2018-07-23T21:34:48.255Z,49.28
2018-07-23T21:37:16.627Z,49.14
2018-07-23T21:39:44.629Z,49.25
2018-07-23T21:42:12.559Z,49.72
2018-07-23T21:44:40.307Z,49.86
2018-07-23T21:47:08.255Z,49.84
2018-07-23T21:49:35.910Z,48.87
2018-07-23T21:52:03.674Z,49.07
2018-07-23T21:54:31.880Z,49.12
2018-07-23T21:56:59.554Z,48.77
2018-07-23T21:59:27.217Z,49.69
2018-07-23T22:01:55.086Z,49.34
2018-07-23T22:04:22.838Z,49.61
2018-07-23T22:06:50.546Z,49.27
2018-07-23T22:09:18.853Z,49.03
2018-07-23T22:11:46.492Z,49.02
2018-07-23T22:14:14.191Z,48.68
2018-07-23T22:16:42.160Z,48.30
2018-07-23T22:19:09.882Z,48.45
2018-07-23T22:21:38.059Z,48.42
2018-07-23T22:24:06.177Z,47.97
2018-07-23T22:26:33.874Z,47.92
2018-07-23T22:29:01.896Z,49.03
2018-07-23T22:31:29.872Z,48.24
2018-07-23T22:33:57.827Z,49.06
2018-07-23T22:36:25.618Z,48.41
2018-07-23T22:38:53.326Z,49.12
2018-07-23T22:41:21.089Z,48.75
2018-07-23T22:43:49.075Z,49.37
2018-07-23T22:46:17.252Z,48.35
2018-07-23T22:48:45.057Z,48.75
2018-07-23T22:51:12.742Z,48.86
2018-07-23T22:53:40.765Z,48.82
2018-07-23T22:56:08.783Z,49.25
2018-07-23T22:58:36.433Z,49.16
2018-07-23T23:01:04.202Z,49.13
2018-07-23T23:03:32.201Z,49.28
2018-07-23T23:06:00.163Z,49.07
2018-07-23T23:08:28.100Z,49.11
2018-07-23T23:10:55.781Z,49.26
2018-07-23T23:13:24.141Z,49.47
2018-07-23T23:15:52.041Z,49.28
2018-07-23T23:18:19.986Z,49.36
2018-07-23T23:20:47.958Z,48.55
2018-07-23T23:23:15.969Z,48.95
2018-07-23T23:25:43.606Z,48.77
2018-07-23T23:28:11.296Z,48.52
2018-07-23T23:30:38.947Z,48.44
2018-07-23T23:33:06.902Z,49.24
2018-07-23T23:35:34.797Z,49.07
2018-07-23T23:38:02.863Z,49.18
2018-07-23T23:40:30.565Z,49.13
2018-07-23T23:42:58.902Z,48.90
2018-07-23T23:45:27.153Z,49.71
2018-07-23T23:47:54.902Z,49.66
2018-07-23T23:50:22.590Z,50.51
2018-07-23T23:52:50.267Z,50.54
2018-07-23T23:55:18.620Z,50.28
2018-07-23T23:57:46.567Z,50.20
